Burns Pinion Ridge Reserve, California Weather observations

Data are for 10 minute period ending at time listed.
 Day   Time   Solar   Ave.   Ave.  Ave.  Vector  Max.   Baro.   Total    
  of    of     Rad.   Air    Rel.  Wind   Wind   Wind  Press.  Precip.   
Year   Day            Temp.  Hum.  Speed  Dir.   Gust                    
2015   (PST)  Kw/m2    F      %     mph   deg.    mph    mb.     in.     
-------------------------------------------------------------------------
  26    3:10   0.00   41.5    53    2.1   324     3.1   878.8    0.00 
  26    3:20   0.00   42.1    52    1.9   311     2.5   878.9    0.00 
  26    3:30   0.00   43.4    51    1.5   314     2.2   878.9    0.00 
  26    3:40   0.00   43.5    52    2.1   324     3.1   878.8    0.00 
  26    3:50   0.00   44.7    48    0.7   326     2.6   878.8    0.00 
  26    4:00   0.00   45.8    47    0.0   214     1.0   878.9    0.00 
  26    4:10   0.00   45.9    48    0.0     0     0.0   878.8    0.00 
  26    4:20   0.00   46.3    47    0.7   257     1.8   878.9    0.00 
  26    4:30   0.00   46.5    47    0.0     0     0.0   878.9    0.00 
  26    4:40   0.00   46.8    47    0.0    11     1.2   878.9    0.00 
  26    4:50   0.00   47.0    47    1.0   339     2.0   878.9    0.00 
  26    5:00   0.00   47.4    46    1.1   344     2.0   878.9    0.00 
  26    5:10   0.00   47.3    47    0.0   322     0.7   878.7    0.00 
  26    5:20   0.00   47.4    47    0.0     0     0.0   878.6    0.00 
  26    5:30   0.00   46.9    48    0.1   300     1.5   878.7    0.00 
  26    5:40   0.00   47.5    45    1.7   197     3.6   878.9    0.00 
  26    5:50   0.00   48.0    46    1.2   192     2.9   878.9    0.00 
  26    6:00   0.00   47.6    47    0.0     0     0.0   878.8    0.00 
  26    6:10   0.00   47.6    47    0.9   104     1.9   878.9    0.00 
  26    6:20   0.00   47.5    47    2.1    99     3.3   879.0    0.00 
  26    6:30   0.00   48.3    45    1.7    80     3.1   879.0    0.00 
  26    6:40   0.00   49.1    46    1.0   331     3.3   878.7    0.00 
  26    6:50   0.00   48.8    50    0.1   343     1.4   878.7    0.00 
  26    7:00   0.00   48.5    52    2.4   119     3.9   878.8    0.00 
  26    7:10   0.00   50.6    43    3.4   107     5.3   879.0    0.00 
  26    7:20   0.01   52.8    37    3.9   107     6.1   879.0    0.00 
  26    7:30   0.02   53.3    35    3.8   118     5.5   879.0    0.00 
  26    7:40   0.05   52.8    37    3.2   123     5.0   879.1    0.00 
  26    7:50   0.04   52.9    37    3.3   116     5.3   879.1    0.00 
  26    8:00   0.04   53.2    36    4.4   110     7.3   879.2    0.00 
  26    8:10   0.06   53.5    35    5.7   107     8.6   879.2    0.00 
  26    8:20   0.06   53.3    36    4.9   102     7.7   879.3    0.00 
  26    8:30   0.08   53.5    36    4.1    95     6.6   879.2    0.00 
  26    8:40   0.08   53.8    36    2.8   102     5.4   879.0    0.00 
  26    8:50   0.07   54.4    34    3.0   100     4.7   879.0    0.00 
  26    9:00   0.07   54.9    35    2.0   127     3.5   879.1    0.00 
  26    9:10   0.06   55.1    31    3.7   105     5.8   879.2    0.00 
  26    9:20   0.07   55.2    30    4.0   106     6.6   879.3    0.00 
  26    9:30   0.08   55.1    31    4.2   106     7.9   879.5    0.00 
  26    9:40   0.12   54.9    33    5.6   113     9.1   879.7    0.00 
  26    9:50   0.14   54.7    35    6.2   113    10.3   879.7    0.00 
  26   10:00   0.08   54.2    37    6.0   103    10.7   879.8    0.00 
  26   10:10   0.07   53.7    40    5.5   120     9.6   879.7    0.00 
  26   10:20   0.06   53.9    38    6.4   147    10.7   879.8    0.00 
  26   10:30   0.06   54.1    36    4.2   169     9.6   879.9    0.00 
  26   10:40   0.07   54.1    36    3.9   194     8.6   879.8    0.00 
  26   10:50   0.07   53.8    44    4.8   188    11.6   879.7    0.00 
  26   11:00   0.04   53.4    54    8.3   152    18.0   879.7    0.00 
  26   11:10   0.05   53.1    50    4.2   183     9.3   879.6    0.00 
  26   11:20   0.05   52.6    54    5.1   163    11.5   879.5    0.00 
  26   11:30   0.04   52.3    59    4.9   164     9.3   879.5    0.00 
  26   11:40   0.05   51.8    64    4.6   203     9.1   879.4    0.00 
  26   11:50   0.04   51.1    67    4.1   203     7.2   879.2    0.00 
  26   12:00   0.04   50.6    68    4.2   193     9.3   879.1    0.00 
  26   12:10   0.04   49.9    72    4.3   200     8.6   879.1    0.00 
  26   12:20   0.06   49.1    78    4.7   201     8.6   879.0    0.00 
  26   12:30   0.12   48.2    85    5.7   240     9.4   878.7    0.00 
  26   12:40   0.18   48.3    88    4.3   234     7.5   878.5    0.00 
  26   12:50   0.24   49.5    86    4.8   233     8.3   878.2    0.00 
  26   13:00   0.13   49.7    84    4.3   236     7.0   878.1    0.00 
  26   13:10   0.08   49.9    84    3.4   221     6.3   878.0    0.00 
  26   13:20   0.06   50.0    84    3.0   178     5.6   878.0    0.00 
  26   13:30   0.05   49.8    86    2.6   200     4.5   877.9    0.00 
  26   13:40   0.09   49.7    87    3.0   194     5.0   877.9    0.00 
  26   13:50   0.10   50.1    86    2.5   218     4.3   877.8    0.00 
  26   14:00   0.11   50.3    85    2.9   221     4.6   877.7    0.00 
  26   14:10   0.12   50.5    84    3.6   267     6.0   877.5    0.00 
  26   14:20   0.11   51.3    82    1.8   339     4.2   877.4    0.00 
  26   14:30   0.06   50.9    82    2.9   337     6.7   877.3    0.00 
  26   14:40   0.06   51.3    81    1.3   116     3.8   877.3    0.00 
  26   14:50   0.05   51.1    81    3.2   138     7.2   877.4    0.00 
  26   15:00   0.03   50.7    81    4.2   130     7.7   877.5    0.00 
  26   15:10   0.03   50.3    81    6.7   113    12.4   877.5    0.00 
  26   15:20   0.06   49.9    86    4.7   163    10.7   877.3    0.00 
  26   15:30   0.02   49.2    88    3.5   131     7.2   877.1    0.00 
  26   15:40   0.02   48.7    90    3.8   167     6.1   877.0    0.00 
  26   15:50   0.01   48.4    92    3.9   191     6.6   877.2    0.02 
  26   16:00   0.01   48.1    94    2.7   175     8.0   877.3    0.03 
  26   16:10   0.02   47.4    94    4.5   191     8.4   877.3    0.01 
  26   16:20   0.02   47.2    93    2.8   192     5.9   877.3    0.00 
  26   16:30   0.01   47.1    93    3.2   186     5.6   877.3    0.01 
  26   16:40   0.01   47.2    94    2.4   158     5.2   877.5    0.01 
  26   16:50   0.01   47.2    95    3.2   166     6.6   877.6    0.01 
  26   17:00   0.01   47.0    95    2.5   152     5.3   877.5    0.00 
  26   17:10   0.00   46.7    96    2.4   171     4.0   877.3    0.00 
  26   17:20   0.00   46.7    96    2.3   202     4.7   877.4    0.00 
  26   17:30   0.00   46.7    96    1.9   186     3.1   877.4    0.00 
  26   17:40   0.00   46.7    96    1.4   180     4.1   877.4    0.00 
  26   17:50   0.00   46.7    96    2.2   152     4.7   877.5    0.02 
  26   18:00   0.00   46.5    96    3.6   139     5.6   877.6    0.01 
  26   18:10   0.00   46.4    96    3.4   144     6.8   877.6    0.01 
  26   18:20   0.00   46.4    97    3.0   172     6.4   877.6    0.01 
  26   18:30   0.00   46.4    97    2.1   125     3.7   877.5    0.00 
  26   18:40   0.00   46.4    96    2.2   123     4.0   877.5    0.00 
  26   18:50   0.00   46.3    96    4.0   115     6.6   877.7    0.00 
  26   19:00   0.00   45.2    97    3.9    95     8.7   877.9    0.00 
  26   19:10   0.00   44.8    98    3.8    98     9.1   877.9    0.00 
  26   19:20   0.00   44.7    98    3.2    92     6.9   877.8    0.01 
  26   19:30   0.00   44.8    99    3.2   106     5.9   877.9    0.01 
  26   19:40   0.00   44.6    99    3.3    81     6.5   877.9    0.01 
  26   19:50   0.00   44.3    99    3.4    80     7.2   877.9    0.01 
  26   20:00   0.00   44.4    99    2.1    89     6.9   878.1    0.00 
  26   20:10   0.00   44.4    99    2.2    69     6.3   878.1    0.01 
  26   20:20   0.00   44.4    99    2.8    62     4.9   878.2    0.00 
  26   20:30   0.00   44.3    99    2.7    71     5.6   878.2    0.01 
  26   20:40   0.00   44.2    99    2.5    78     4.6   878.3    0.00 
  26   20:50   0.00   44.2    99    2.2   112     3.7   878.4    0.00 
  26   21:00   0.00   44.1    99    2.3    60     4.5   878.4    0.01 
  26   21:10   0.00   44.0    99    1.7    70     3.0   878.4    0.00 
  26   21:20   0.00   44.1    99    1.4    77     2.3   878.3    0.00 
  26   21:30   0.00   44.3    99    0.7    86     2.4   878.4    0.00 
  26   21:40   0.00   44.2    99    1.3    74     2.5   878.4    0.00 
  26   21:50   0.00   44.2    99    2.2    73     3.7   878.4    0.01 
  26   22:00   0.00   44.3    99    2.1   109     4.0   878.5    0.00 
  26   22:10   0.00   44.4    99    3.6   128     5.1   878.5    0.00 
  26   22:20   0.00   44.3    99    4.0   140     5.8   878.6    0.01 
  26   22:30   0.00   44.3    99    4.1   133     5.6   878.7    0.01 
  26   22:40   0.00   44.3    99    4.1   140     5.8   878.7    0.00 
  26   22:50   0.00   44.4    99    3.5   153     7.6   878.8    0.00 
  26   23:00   0.00   44.6    99    3.7   178     8.1   878.9    0.01 
  26   23:10   0.00   44.7    99    3.0   181     6.9   878.9    0.00 
  26   23:20   0.00   44.7    99    3.9   196     8.2   878.9    0.00 
  26   23:30   0.00   44.8    99    3.8   174     7.7   878.9    0.00 
  26   23:40   0.00   44.8    99    2.9   184     9.3   878.9    0.01 
  26   23:50   0.00   44.9    99    3.4   184     8.3   878.8    0.00 
  27    0:00   0.00   44.9    99    3.9   204     7.2   878.9    0.00 
  27    0:10   0.00   44.8    99    5.1   203    12.6   879.0    0.00 
  27    0:20   0.00   44.7    99    4.1   198     7.7   879.0    0.01 
  27    0:30   0.00   44.6    99    3.8   191     7.9   879.0    0.00 
  27    0:40   0.00   44.6    99    3.0   175     5.7   878.9    0.00 
  27    0:50   0.00   44.7   100    4.2   161     9.0   878.9    0.00 
  27    1:00   0.00   44.6   100    4.3   167    10.2   879.0    0.00 
  27    1:10   0.00   44.6   100    4.0   180     9.5   878.9    0.00 
  27    1:20   0.00   44.6   100    4.8   167    10.1   879.0    0.00 
  27    1:30   0.00   44.6   100    4.3   171    10.4   879.1    0.00 
  27    1:40   0.00   44.5   100    4.3   185    10.5   879.1    0.00 
  27    1:50   0.00   44.4   100    4.6   183    10.8   879.0    0.00 
  27    2:00   0.00   44.4   100    5.3   195    12.6   879.1    0.00 
  27    2:10   0.00   44.5   100    4.2   197     8.4   879.0    0.00 
  27    2:20   0.00   44.5   100    3.9   197     8.4   879.1    0.00 
  27    2:30   0.00   44.5   100    4.1   177     9.3   879.2    0.00 
  27    2:40   0.00   44.4   100    3.9   184     7.6   879.2    0.00 
  27    2:50   0.00   44.4   100    4.5   170     8.3   879.3    0.00 
  27    3:00   0.00   44.4   100    4.7   180     8.4   879.2    0.00 

Return to Burns Pinion Ridge Reserve graphs page.


Western Regional Climate Center,wrcc@dri.edu